sensor_id;sensor_type;location;lat;lon;timestamp;temperature;humidity
13322;DHT22;6730;46.248;6.930;2022-12-29T00:02:05;7.10;99.90
13322;DHT22;6730;46.248;6.930;2022-12-29T00:04:30;7.00;99.90
13322;DHT22;6730;46.248;6.930;2022-12-29T00:06:56;7.10;99.90
13322;DHT22;6730;46.248;6.930;2022-12-29T00:09:22;7.10;99.90
13322;DHT22;6730;46.248;6.930;2022-12-29T00:11:48;6.90;99.90
13322;DHT22;6730;46.248;6.930;2022-12-29T00:14:15;6.90;99.90
13322;DHT22;6730;46.248;6.930;2022-12-29T00:17:00;7.00;99.90
13322;DHT22;6730;46.248;6.930;2022-12-29T00:19:26;6.40;99.90
13322;DHT22;6730;46.248;6.930;2022-12-29T00:22:14;6.10;99.90
13322;DHT22;6730;46.248;6.930;2022-12-29T00:24:59;6.10;99.90
13322;DHT22;6730;46.248;6.930;2022-12-29T00:27:31;6.30;99.90
13322;DHT22;6730;46.248;6.930;2022-12-29T00:30:18;6.50;99.90
13322;DHT22;6730;46.248;6.930;2022-12-29T00:36:08;6.20;99.90
13322;DHT22;6730;46.248;6.930;2022-12-29T00:38:36;6.20;99.90
13322;DHT22;6730;46.248;6.930;2022-12-29T00:41:21;6.30;99.90
13322;DHT22;6730;46.248;6.930;2022-12-29T00:44:07;6.40;99.90
13322;DHT22;6730;46.248;6.930;2022-12-29T00:46:40;6.10;99.90
13322;DHT22;6730;46.248;6.930;2022-12-29T00:49:09;6.00;99.90
13322;DHT22;6730;46.248;6.930;2022-12-29T00:51:54;6.10;99.90
13322;DHT22;6730;46.248;6.930;2022-12-29T00:54:20;6.20;99.90
13322;DHT22;6730;46.248;6.930;2022-12-29T00:56:51;6.40;99.90
13322;DHT22;6730;46.248;6.930;2022-12-29T00:59:17;6.50;99.90
13322;DHT22;6730;46.248;6.930;2022-12-29T01:01:44;6.10;99.90
13322;DHT22;6730;46.248;6.930;2022-12-29T01:04:10;5.90;99.90
13322;DHT22;6730;46.248;6.930;2022-12-29T01:06:38;5.90;99.90
13322;DHT22;6730;46.248;6.930;2022-12-29T01:09:04;6.30;99.90
13322;DHT22;6730;46.248;6.930;2022-12-29T01:11:49;6.50;99.90
13322;DHT22;6730;46.248;6.930;2022-12-29T01:14:15;6.30;99.90
13322;DHT22;6730;46.248;6.930;2022-12-29T01:16:44;5.90;99.90
13322;DHT22;6730;46.248;6.930;2022-12-29T01:19:11;5.90;99.90
13322;DHT22;6730;46.248;6.930;2022-12-29T01:21:37;5.90;99.90
13322;DHT22;6730;46.248;6.930;2022-12-29T01:24:04;6.00;99.90
13322;DHT22;6730;46.248;6.930;2022-12-29T01:26:30;6.00;99.90
13322;DHT22;6730;46.248;6.930;2022-12-29T01:28:56;6.00;99.90
13322;DHT22;6730;46.248;6.930;2022-12-29T01:31:22;6.10;99.90
13322;DHT22;6730;46.248;6.930;2022-12-29T01:33:47;6.00;99.90
13322;DHT22;6730;46.248;6.930;2022-12-29T01:36:15;5.80;99.90
13322;DHT22;6730;46.248;6.930;2022-12-29T01:38:42;5.90;99.90
13322;DHT22;6730;46.248;6.930;2022-12-29T01:41:10;6.00;99.90
13322;DHT22;6730;46.248;6.930;2022-12-29T01:43:54;6.10;99.90
13322;DHT22;6730;46.248;6.930;2022-12-29T01:46:33;6.00;99.90
13322;DHT22;6730;46.248;6.930;2022-12-29T01:51:30;6.00;99.90
13322;DHT22;6730;46.248;6.930;2022-12-29T01:54:03;6.20;99.90
13322;DHT22;6730;46.248;6.930;2022-12-29T01:56:31;6.20;99.90
13322;DHT22;6730;46.248;6.930;2022-12-29T01:59:04;6.20;99.90
13322;DHT22;6730;46.248;6.930;2022-12-29T02:01:34;6.30;99.50
13322;DHT22;6730;46.248;6.930;2022-12-29T02:04:03;6.20;99.10
13322;DHT22;6730;46.248;6.930;2022-12-29T02:06:49;6.20;99.90
13322;DHT22;6730;46.248;6.930;2022-12-29T02:09:21;6.30;99.90
13322;DHT22;6730;46.248;6.930;2022-12-29T02:11:50;6.50;99.90
13322;DHT22;6730;46.248;6.930;2022-12-29T02:14:18;6.50;99.90
13322;DHT22;6730;46.248;6.930;2022-12-29T02:23:07;6.50;99.90
13322;DHT22;6730;46.248;6.930;2022-12-29T02:36:24;5.70;99.90
13322;DHT22;6730;46.248;6.930;2022-12-29T02:44:55;5.30;99.90
13322;DHT22;6730;46.248;6.930;2022-12-29T02:50:40;5.80;99.90
13322;DHT22;6730;46.248;6.930;2022-12-29T02:53:11;5.90;99.90
13322;DHT22;6730;46.248;6.930;2022-12-29T02:55:38;5.70;99.90
13322;DHT22;6730;46.248;6.930;2022-12-29T02:58:27;5.70;99.90
13322;DHT22;6730;46.248;6.930;2022-12-29T03:09:36;5.80;99.90
13322;DHT22;6730;46.248;6.930;2022-12-29T03:15:08;6.10;99.90
13322;DHT22;6730;46.248;6.930;2022-12-29T03:18:10;6.30;99.90
13322;DHT22;6730;46.248;6.930;2022-12-29T03:20:55;6.00;99.90
13322;DHT22;6730;46.248;6.930;2022-12-29T03:23:24;6.00;99.70
13322;DHT22;6730;46.248;6.930;2022-12-29T03:25:55;6.10;99.90
13322;DHT22;6730;46.248;6.930;2022-12-29T03:28:39;6.10;99.90
13322;DHT22;6730;46.248;6.930;2022-12-29T03:31:08;6.10;99.90
13322;DHT22;6730;46.248;6.930;2022-12-29T03:33:35;6.20;99.90
13322;DHT22;6730;46.248;6.930;2022-12-29T03:36:05;6.20;99.90
13322;DHT22;6730;46.248;6.930;2022-12-29T03:38:46;6.50;99.90
13322;DHT22;6730;46.248;6.930;2022-12-29T03:41:17;6.20;99.90
13322;DHT22;6730;46.248;6.930;2022-12-29T03:43:44;5.60;99.90
13322;DHT22;6730;46.248;6.930;2022-12-29T03:46:09;5.50;99.90
13322;DHT22;6730;46.248;6.930;2022-12-29T03:48:35;5.80;99.90
13322;DHT22;6730;46.248;6.930;2022-12-29T03:51:08;6.20;99.90
13322;DHT22;6730;46.248;6.930;2022-12-29T03:53:34;6.30;99.90
13322;DHT22;6730;46.248;6.930;2022-12-29T03:55:59;6.50;99.90
13322;DHT22;6730;46.248;6.930;2022-12-29T03:58:25;6.60;99.90
13322;DHT22;6730;46.248;6.930;2022-12-29T04:00:50;6.70;99.90
13322;DHT22;6730;46.248;6.930;2022-12-29T04:03:16;6.50;99.90
13322;DHT22;6730;46.248;6.930;2022-12-29T04:05:41;6.30;99.90
13322;DHT22;6730;46.248;6.930;2022-12-29T04:08:07;6.30;99.90
13322;DHT22;6730;46.248;6.930;2022-12-29T04:10:33;6.20;99.90
13322;DHT22;6730;46.248;6.930;2022-12-29T04:12:59;6.20;99.90
13322;DHT22;6730;46.248;6.930;2022-12-29T04:15:25;6.30;99.90
13322;DHT22;6730;46.248;6.930;2022-12-29T04:17:51;6.60;99.90
13322;DHT22;6730;46.248;6.930;2022-12-29T04:20:17;6.30;99.90
13322;DHT22;6730;46.248;6.930;2022-12-29T04:23:02;6.30;99.90
13322;DHT22;6730;46.248;6.930;2022-12-29T04:25:28;6.20;99.90
13322;DHT22;6730;46.248;6.930;2022-12-29T04:27:55;6.10;99.90
13322;DHT22;6730;46.248;6.930;2022-12-29T04:30:20;6.30;99.90
13322;DHT22;6730;46.248;6.930;2022-12-29T04:32:46;6.60;99.90
13322;DHT22;6730;46.248;6.930;2022-12-29T04:35:12;6.50;99.60
13322;DHT22;6730;46.248;6.930;2022-12-29T04:37:37;6.70;99.90
13322;DHT22;6730;46.248;6.930;2022-12-29T04:40:03;6.90;99.90
13322;DHT22;6730;46.248;6.930;2022-12-29T04:42:29;7.00;99.90
13322;DHT22;6730;46.248;6.930;2022-12-29T04:44:54;6.40;99.90
13322;DHT22;6730;46.248;6.930;2022-12-29T04:47:20;6.10;99.90
13322;DHT22;6730;46.248;6.930;2022-12-29T04:49:46;6.20;99.90
13322;DHT22;6730;46.248;6.930;2022-12-29T04:52:11;6.10;99.90
13322;DHT22;6730;46.248;6.930;2022-12-29T04:54:37;6.10;99.90
13322;DHT22;6730;46.248;6.930;2022-12-29T04:57:03;6.30;99.90
13322;DHT22;6730;46.248;6.930;2022-12-29T04:59:28;6.40;99.90
13322;DHT22;6730;46.248;6.930;2022-12-29T05:01:54;6.30;99.90
13322;DHT22;6730;46.248;6.930;2022-12-29T05:04:19;6.40;99.90
13322;DHT22;6730;46.248;6.930;2022-12-29T05:06:45;6.40;99.90
13322;DHT22;6730;46.248;6.930;2022-12-29T05:09:11;6.20;99.90
13322;DHT22;6730;46.248;6.930;2022-12-29T05:11:36;6.30;99.90
13322;DHT22;6730;46.248;6.930;2022-12-29T05:14:02;6.00;99.90
13322;DHT22;6730;46.248;6.930;2022-12-29T05:16:27;5.70;99.90
13322;DHT22;6730;46.248;6.930;2022-12-29T05:18:53;5.80;99.90
13322;DHT22;6730;46.248;6.930;2022-12-29T05:21:19;5.70;99.90
13322;DHT22;6730;46.248;6.930;2022-12-29T05:23:44;5.30;99.90
13322;DHT22;6730;46.248;6.930;2022-12-29T05:26:10;5.20;99.90
13322;DHT22;6730;46.248;6.930;2022-12-29T05:28:35;5.20;99.90
13322;DHT22;6730;46.248;6.930;2022-12-29T05:31:01;5.40;99.90
13322;DHT22;6730;46.248;6.930;2022-12-29T05:33:27;5.20;99.90
13322;DHT22;6730;46.248;6.930;2022-12-29T05:35:52;5.30;99.90
13322;DHT22;6730;46.248;6.930;2022-12-29T05:38:18;5.60;99.90
13322;DHT22;6730;46.248;6.930;2022-12-29T05:40:43;5.50;99.90
13322;DHT22;6730;46.248;6.930;2022-12-29T05:43:09;5.70;99.90
13322;DHT22;6730;46.248;6.930;2022-12-29T05:45:36;5.70;99.90
13322;DHT22;6730;46.248;6.930;2022-12-29T05:48:01;5.60;99.90
13322;DHT22;6730;46.248;6.930;2022-12-29T05:50:27;5.70;99.90
13322;DHT22;6730;46.248;6.930;2022-12-29T05:52:53;6.10;99.90
13322;DHT22;6730;46.248;6.930;2022-12-29T05:55:18;5.80;99.90
13322;DHT22;6730;46.248;6.930;2022-12-29T05:57:44;5.70;99.90
13322;DHT22;6730;46.248;6.930;2022-12-29T06:00:10;5.90;99.90
13322;DHT22;6730;46.248;6.930;2022-12-29T06:02:36;5.90;99.90
13322;DHT22;6730;46.248;6.930;2022-12-29T06:05:02;6.20;99.90
13322;DHT22;6730;46.248;6.930;2022-12-29T06:07:27;5.90;99.90
13322;DHT22;6730;46.248;6.930;2022-12-29T06:09:53;5.80;99.80
13322;DHT22;6730;46.248;6.930;2022-12-29T06:12:19;6.00;99.90
13322;DHT22;6730;46.248;6.930;2022-12-29T06:14:44;6.10;99.90
13322;DHT22;6730;46.248;6.930;2022-12-29T06:17:10;6.20;99.90
13322;DHT22;6730;46.248;6.930;2022-12-29T06:19:35;6.20;99.90
13322;DHT22;6730;46.248;6.930;2022-12-29T06:22:01;6.20;99.90
13322;DHT22;6730;46.248;6.930;2022-12-29T06:24:27;6.40;99.90
13322;DHT22;6730;46.248;6.930;2022-12-29T06:26:53;6.50;99.10
13322;DHT22;6730;46.248;6.930;2022-12-29T06:29:18;6.10;99.80
13322;DHT22;6730;46.248;6.930;2022-12-29T06:31:46;6.00;99.90
13322;DHT22;6730;46.248;6.930;2022-12-29T06:34:12;6.00;99.90
13322;DHT22;6730;46.248;6.930;2022-12-29T06:36:38;5.90;99.90
13322;DHT22;6730;46.248;6.930;2022-12-29T06:39:04;5.80;99.70
13322;DHT22;6730;46.248;6.930;2022-12-29T06:41:30;5.70;99.90
13322;DHT22;6730;46.248;6.930;2022-12-29T06:43:56;6.00;99.90
13322;DHT22;6730;46.248;6.930;2022-12-29T06:46:21;6.20;99.90
13322;DHT22;6730;46.248;6.930;2022-12-29T06:48:47;6.20;99.90
13322;DHT22;6730;46.248;6.930;2022-12-29T06:51:12;6.00;99.90
13322;DHT22;6730;46.248;6.930;2022-12-29T06:53:38;5.50;99.90
13322;DHT22;6730;46.248;6.930;2022-12-29T06:56:04;5.30;99.90
13322;DHT22;6730;46.248;6.930;2022-12-29T06:58:30;5.40;99.90
13322;DHT22;6730;46.248;6.930;2022-12-29T07:00:55;5.60;99.90
13322;DHT22;6730;46.248;6.930;2022-12-29T07:03:21;5.70;99.80
13322;DHT22;6730;46.248;6.930;2022-12-29T07:05:46;5.90;99.90
13322;DHT22;6730;46.248;6.930;2022-12-29T07:08:12;5.90;99.90
13322;DHT22;6730;46.248;6.930;2022-12-29T07:10:38;6.00;99.90
13322;DHT22;6730;46.248;6.930;2022-12-29T07:13:03;6.00;99.90
13322;DHT22;6730;46.248;6.930;2022-12-29T07:15:29;6.00;99.90
13322;DHT22;6730;46.248;6.930;2022-12-29T07:17:55;5.90;99.60
13322;DHT22;6730;46.248;6.930;2022-12-29T07:20:20;6.00;99.90
13322;DHT22;6730;46.248;6.930;2022-12-29T07:22:46;6.00;99.90
13322;DHT22;6730;46.248;6.930;2022-12-29T07:25:12;5.90;99.90
13322;DHT22;6730;46.248;6.930;2022-12-29T07:27:38;5.90;99.90
13322;DHT22;6730;46.248;6.930;2022-12-29T07:30:04;6.00;99.90
13322;DHT22;6730;46.248;6.930;2022-12-29T07:32:33;6.00;99.90
13322;DHT22;6730;46.248;6.930;2022-12-29T07:34:59;6.00;99.90
13322;DHT22;6730;46.248;6.930;2022-12-29T07:37:24;6.00;99.90
13322;DHT22;6730;46.248;6.930;2022-12-29T07:39:50;5.80;99.90
13322;DHT22;6730;46.248;6.930;2022-12-29T07:42:16;5.90;99.90
13322;DHT22;6730;46.248;6.930;2022-12-29T07:44:41;5.90;99.90
13322;DHT22;6730;46.248;6.930;2022-12-29T07:47:07;5.90;99.90
13322;DHT22;6730;46.248;6.930;2022-12-29T07:49:33;5.90;99.90
13322;DHT22;6730;46.248;6.930;2022-12-29T07:51:58;5.80;99.90
13322;DHT22;6730;46.248;6.930;2022-12-29T07:54:24;5.80;99.90
13322;DHT22;6730;46.248;6.930;2022-12-29T07:56:50;5.50;99.90
13322;DHT22;6730;46.248;6.930;2022-12-29T07:59:16;5.20;99.90
13322;DHT22;6730;46.248;6.930;2022-12-29T08:01:41;5.30;99.90
13322;DHT22;6730;46.248;6.930;2022-12-29T08:04:07;5.20;99.90
13322;DHT22;6730;46.248;6.930;2022-12-29T08:06:33;5.40;99.90
13322;DHT22;6730;46.248;6.930;2022-12-29T08:08:58;5.60;99.90
13322;DHT22;6730;46.248;6.930;2022-12-29T08:11:25;5.80;99.90
13322;DHT22;6730;46.248;6.930;2022-12-29T08:13:51;6.10;99.90
13322;DHT22;6730;46.248;6.930;2022-12-29T08:16:17;6.20;99.90
13322;DHT22;6730;46.248;6.930;2022-12-29T08:18:43;6.10;99.90
13322;DHT22;6730;46.248;6.930;2022-12-29T08:21:09;6.10;99.90
13322;DHT22;6730;46.248;6.930;2022-12-29T08:23:35;6.20;99.90
13322;DHT22;6730;46.248;6.930;2022-12-29T08:26:03;6.30;99.90
13322;DHT22;6730;46.248;6.930;2022-12-29T08:28:29;6.40;99.90
13322;DHT22;6730;46.248;6.930;2022-12-29T08:30:59;6.30;99.90
13322;DHT22;6730;46.248;6.930;2022-12-29T08:33:25;6.50;99.90
13322;DHT22;6730;46.248;6.930;2022-12-29T08:35:51;6.60;99.90
13322;DHT22;6730;46.248;6.930;2022-12-29T08:38:17;7.50;99.90
13322;DHT22;6730;46.248;6.930;2022-12-29T08:40:43;7.00;99.90
13322;DHT22;6730;46.248;6.930;2022-12-29T08:43:09;6.90;99.90
13322;DHT22;6730;46.248;6.930;2022-12-29T08:45:35;6.80;99.90
13322;DHT22;6730;46.248;6.930;2022-12-29T08:48:00;6.80;99.90
13322;DHT22;6730;46.248;6.930;2022-12-29T08:50:26;7.10;99.90
13322;DHT22;6730;46.248;6.930;2022-12-29T08:52:52;7.90;99.90
13322;DHT22;6730;46.248;6.930;2022-12-29T08:55:17;8.60;99.90
13322;DHT22;6730;46.248;6.930;2022-12-29T08:57:43;9.00;99.90
13322;DHT22;6730;46.248;6.930;2022-12-29T09:00:09;9.10;99.90
13322;DHT22;6730;46.248;6.930;2022-12-29T09:02:35;8.90;99.90
13322;DHT22;6730;46.248;6.930;2022-12-29T09:05:00;8.10;99.90
13322;DHT22;6730;46.248;6.930;2022-12-29T09:07:26;7.60;99.90
13322;DHT22;6730;46.248;6.930;2022-12-29T09:09:52;9.00;99.90
13322;DHT22;6730;46.248;6.930;2022-12-29T09:12:17;10.80;99.90
13322;DHT22;6730;46.248;6.930;2022-12-29T09:14:45;12.30;99.90
13322;DHT22;6730;46.248;6.930;2022-12-29T09:17:11;13.10;99.90
13322;DHT22;6730;46.248;6.930;2022-12-29T09:19:55;14.30;99.90
13322;DHT22;6730;46.248;6.930;2022-12-29T09:22:21;15.40;99.20
13322;DHT22;6730;46.248;6.930;2022-12-29T09:24:46;16.30;97.20
13322;DHT22;6730;46.248;6.930;2022-12-29T09:27:12;16.90;95.90
13322;DHT22;6730;46.248;6.930;2022-12-29T09:29:38;17.30;94.70
13322;DHT22;6730;46.248;6.930;2022-12-29T09:32:04;17.20;93.50
13322;DHT22;6730;46.248;6.930;2022-12-29T09:34:30;16.90;93.60
13322;DHT22;6730;46.248;6.930;2022-12-29T09:36:56;17.10;93.20
13322;DHT22;6730;46.248;6.930;2022-12-29T09:39:22;18.20;93.80
13322;DHT22;6730;46.248;6.930;2022-12-29T09:42:16;18.90;90.60
13322;DHT22;6730;46.248;6.930;2022-12-29T09:47:17;17.30;91.20
13322;DHT22;6730;46.248;6.930;2022-12-29T09:49:48;16.50;92.30
13322;DHT22;6730;46.248;6.930;2022-12-29T09:52:47;14.50;93.70
13322;DHT22;6730;46.248;6.930;2022-12-29T09:55:21;13.50;93.70
13322;DHT22;6730;46.248;6.930;2022-12-29T09:57:56;12.80;92.70
13322;DHT22;6730;46.248;6.930;2022-12-29T10:03:20;11.70;94.80
13322;DHT22;6730;46.248;6.930;2022-12-29T10:24:42;8.80;97.60
13322;DHT22;6730;46.248;6.930;2022-12-29T10:27:13;9.00;98.50
13322;DHT22;6730;46.248;6.930;2022-12-29T10:29:44;9.10;98.00
13322;DHT22;6730;46.248;6.930;2022-12-29T10:32:35;8.90;96.80
13322;DHT22;6730;46.248;6.930;2022-12-29T10:35:18;8.50;97.50
13322;DHT22;6730;46.248;6.930;2022-12-29T10:38:05;8.50;99.20
13322;DHT22;6730;46.248;6.930;2022-12-29T10:40:38;8.60;99.10
13322;DHT22;6730;46.248;6.930;2022-12-29T10:46:02;8.90;99.90
13322;DHT22;6730;46.248;6.930;2022-12-29T10:48:33;8.90;98.20
13322;DHT22;6730;46.248;6.930;2022-12-29T10:51:01;8.90;99.30
13322;DHT22;6730;46.248;6.930;2022-12-29T10:53:47;9.20;99.90
13322;DHT22;6730;46.248;6.930;2022-12-29T10:56:34;9.30;99.20
13322;DHT22;6730;46.248;6.930;2022-12-29T10:59:22;9.20;99.90
13322;DHT22;6730;46.248;6.930;2022-12-29T11:07:11;8.60;99.90
13322;DHT22;6730;46.248;6.930;2022-12-29T11:09:39;8.70;99.90
13322;DHT22;6730;46.248;6.930;2022-12-29T11:12:30;8.70;99.90
13322;DHT22;6730;46.248;6.930;2022-12-29T11:18:03;9.50;99.90
13322;DHT22;6730;46.248;6.930;2022-12-29T11:20:37;10.20;99.90
13322;DHT22;6730;46.248;6.930;2022-12-29T11:26:16;11.60;97.60
13322;DHT22;6730;46.248;6.930;2022-12-29T11:28:45;11.40;98.40
13322;DHT22;6730;46.248;6.930;2022-12-29T11:31:16;11.70;97.50
13322;DHT22;6730;46.248;6.930;2022-12-29T11:33:41;12.30;98.40
13322;DHT22;6730;46.248;6.930;2022-12-29T11:36:20;12.30;98.90
13322;DHT22;6730;46.248;6.930;2022-12-29T11:38:52;12.50;99.40
13322;DHT22;6730;46.248;6.930;2022-12-29T11:41:27;12.00;97.00
13322;DHT22;6730;46.248;6.930;2022-12-29T11:43:56;12.30;99.00
13322;DHT22;6730;46.248;6.930;2022-12-29T11:48:51;12.80;97.30
13322;DHT22;6730;46.248;6.930;2022-12-29T11:51:28;12.90;99.90
13322;DHT22;6730;46.248;6.930;2022-12-29T11:54:00;12.60;99.90
13322;DHT22;6730;46.248;6.930;2022-12-29T11:56:45;12.40;99.90
13322;DHT22;6730;46.248;6.930;2022-12-29T12:01:57;12.40;99.90
13322;DHT22;6730;46.248;6.930;2022-12-29T12:04:27;12.70;99.90
13322;DHT22;6730;46.248;6.930;2022-12-29T12:10:08;11.60;99.90
13322;DHT22;6730;46.248;6.930;2022-12-29T12:12:39;11.60;99.90
13322;DHT22;6730;46.248;6.930;2022-12-29T12:15:18;11.90;99.90
13322;DHT22;6730;46.248;6.930;2022-12-29T12:18:02;12.00;99.90
13322;DHT22;6730;46.248;6.930;2022-12-29T12:20:54;12.10;99.90
13322;DHT22;6730;46.248;6.930;2022-12-29T12:23:36;12.10;99.90
13322;DHT22;6730;46.248;6.930;2022-12-29T12:28:45;12.20;99.90
13322;DHT22;6730;46.248;6.930;2022-12-29T12:31:25;11.80;99.90
13322;DHT22;6730;46.248;6.930;2022-12-29T12:34:02;11.50;99.90
13322;DHT22;6730;46.248;6.930;2022-12-29T13:09:06;9.80;99.90
13322;DHT22;6730;46.248;6.930;2022-12-29T13:19:48;8.90;99.80
13322;DHT22;6730;46.248;6.930;2022-12-29T13:22:29;8.80;99.70
13322;DHT22;6730;46.248;6.930;2022-12-29T13:25:06;8.60;99.50
13322;DHT22;6730;46.248;6.930;2022-12-29T13:30:19;8.10;99.90
13322;DHT22;6730;46.248;6.930;2022-12-29T13:35:44;7.90;99.90
13322;DHT22;6730;46.248;6.930;2022-12-29T13:38:36;7.80;99.90
13322;DHT22;6730;46.248;6.930;2022-12-29T13:41:13;7.90;99.90
13322;DHT22;6730;46.248;6.930;2022-12-29T13:43:40;8.20;99.90
13322;DHT22;6730;46.248;6.930;2022-12-29T13:46:13;8.50;99.90
13322;DHT22;6730;46.248;6.930;2022-12-29T13:48:51;8.60;99.90
13322;DHT22;6730;46.248;6.930;2022-12-29T13:51:20;8.30;99.90
13322;DHT22;6730;46.248;6.930;2022-12-29T14:04:23;8.50;99.90
13322;DHT22;6730;46.248;6.930;2022-12-29T14:09:42;8.60;99.90
13322;DHT22;6730;46.248;6.930;2022-12-29T14:12:38;8.30;99.90
13322;DHT22;6730;46.248;6.930;2022-12-29T14:17:37;8.30;99.90
13322;DHT22;6730;46.248;6.930;2022-12-29T14:20:04;8.10;99.90
13322;DHT22;6730;46.248;6.930;2022-12-29T14:22:33;8.20;99.90
13322;DHT22;6730;46.248;6.930;2022-12-29T14:24:59;8.30;99.90
13322;DHT22;6730;46.248;6.930;2022-12-29T14:27:43;8.30;99.90
13322;DHT22;6730;46.248;6.930;2022-12-29T14:30:45;8.20;99.90
13322;DHT22;6730;46.248;6.930;2022-12-29T14:33:13;8.00;99.90
13322;DHT22;6730;46.248;6.930;2022-12-29T14:35:42;8.00;99.90
13322;DHT22;6730;46.248;6.930;2022-12-29T14:38:26;7.90;99.90
13322;DHT22;6730;46.248;6.930;2022-12-29T14:40:52;7.90;99.90
13322;DHT22;6730;46.248;6.930;2022-12-29T14:43:38;7.90;99.90
13322;DHT22;6730;46.248;6.930;2022-12-29T14:46:08;8.00;99.90
13322;DHT22;6730;46.248;6.930;2022-12-29T14:48:43;8.40;99.90
13322;DHT22;6730;46.248;6.930;2022-12-29T14:51:30;8.40;99.90
13322;DHT22;6730;46.248;6.930;2022-12-29T14:53:57;8.50;99.90
13322;DHT22;6730;46.248;6.930;2022-12-29T14:56:28;8.40;99.90
13322;DHT22;6730;46.248;6.930;2022-12-29T14:59:01;8.40;99.90
13322;DHT22;6730;46.248;6.930;2022-12-29T15:01:50;8.80;99.90
13322;DHT22;6730;46.248;6.930;2022-12-29T15:04:23;9.10;99.90
13322;DHT22;6730;46.248;6.930;2022-12-29T15:06:50;8.60;99.90
13322;DHT22;6730;46.248;6.930;2022-12-29T15:12:45;8.90;99.90
13322;DHT22;6730;46.248;6.930;2022-12-29T15:15:27;9.00;99.90
13322;DHT22;6730;46.248;6.930;2022-12-29T15:17:55;8.90;99.90
13322;DHT22;6730;46.248;6.930;2022-12-29T15:20:27;9.20;99.90
13322;DHT22;6730;46.248;6.930;2022-12-29T15:23:00;8.90;99.90
13322;DHT22;6730;46.248;6.930;2022-12-29T15:25:27;8.70;99.90
13322;DHT22;6730;46.248;6.930;2022-12-29T15:28:02;8.90;99.90
13322;DHT22;6730;46.248;6.930;2022-12-29T15:30:29;8.90;99.90
13322;DHT22;6730;46.248;6.930;2022-12-29T15:32:54;9.10;99.90
13322;DHT22;6730;46.248;6.930;2022-12-29T15:35:41;9.30;99.90
13322;DHT22;6730;46.248;6.930;2022-12-29T15:38:15;9.40;99.90
13322;DHT22;6730;46.248;6.930;2022-12-29T15:40:43;9.20;99.90
13322;DHT22;6730;46.248;6.930;2022-12-29T15:45:41;9.80;99.90
13322;DHT22;6730;46.248;6.930;2022-12-29T15:48:18;10.00;99.90
13322;DHT22;6730;46.248;6.930;2022-12-29T15:50:44;9.90;99.90
13322;DHT22;6730;46.248;6.930;2022-12-29T15:53:14;9.50;99.90
13322;DHT22;6730;46.248;6.930;2022-12-29T15:55:42;9.00;99.90
13322;DHT22;6730;46.248;6.930;2022-12-29T15:58:21;8.70;99.90
13322;DHT22;6730;46.248;6.930;2022-12-29T16:00:49;8.70;99.90
13322;DHT22;6730;46.248;6.930;2022-12-29T16:03:16;8.70;99.90
13322;DHT22;6730;46.248;6.930;2022-12-29T16:05:50;8.60;99.90
13322;DHT22;6730;46.248;6.930;2022-12-29T16:08:37;8.90;99.90
13322;DHT22;6730;46.248;6.930;2022-12-29T16:11:26;9.20;99.90
13322;DHT22;6730;46.248;6.930;2022-12-29T16:13:53;8.80;99.90
13322;DHT22;6730;46.248;6.930;2022-12-29T16:16:31;8.50;99.90
13322;DHT22;6730;46.248;6.930;2022-12-29T16:19:06;8.50;99.90
13322;DHT22;6730;46.248;6.930;2022-12-29T16:21:35;8.80;99.90
13322;DHT22;6730;46.248;6.930;2022-12-29T16:24:13;9.20;99.90
13322;DHT22;6730;46.248;6.930;2022-12-29T16:26:48;9.50;99.90
13322;DHT22;6730;46.248;6.930;2022-12-29T16:29:15;9.50;99.90
13322;DHT22;6730;46.248;6.930;2022-12-29T16:31:58;9.30;99.90
13322;DHT22;6730;46.248;6.930;2022-12-29T16:37:28;9.30;99.90
13322;DHT22;6730;46.248;6.930;2022-12-29T16:39:54;8.50;99.90
13322;DHT22;6730;46.248;6.930;2022-12-29T16:42:48;7.90;99.90
13322;DHT22;6730;46.248;6.930;2022-12-29T16:47:48;8.60;99.90
13322;DHT22;6730;46.248;6.930;2022-12-29T16:50:18;8.70;99.90
13322;DHT22;6730;46.248;6.930;2022-12-29T16:52:49;8.70;99.90
13322;DHT22;6730;46.248;6.930;2022-12-29T16:55:17;8.70;99.90
13322;DHT22;6730;46.248;6.930;2022-12-29T16:57:44;8.60;99.90
13322;DHT22;6730;46.248;6.930;2022-12-29T17:00:33;8.70;99.90
13322;DHT22;6730;46.248;6.930;2022-12-29T17:03:00;8.70;99.90
13322;DHT22;6730;46.248;6.930;2022-12-29T17:05:27;8.40;99.90
13322;DHT22;6730;46.248;6.930;2022-12-29T17:07:52;8.30;99.90
13322;DHT22;6730;46.248;6.930;2022-12-29T17:10:18;8.60;99.90
13322;DHT22;6730;46.248;6.930;2022-12-29T17:12:47;8.80;99.90
13322;DHT22;6730;46.248;6.930;2022-12-29T17:17:47;8.70;99.90
13322;DHT22;6730;46.248;6.930;2022-12-29T17:20:16;8.50;99.90
13322;DHT22;6730;46.248;6.930;2022-12-29T17:22:43;8.40;99.90
13322;DHT22;6730;46.248;6.930;2022-12-29T17:25:17;8.40;99.90
13322;DHT22;6730;46.248;6.930;2022-12-29T17:27:54;8.60;99.90
13322;DHT22;6730;46.248;6.930;2022-12-29T17:30:22;8.50;99.90
13322;DHT22;6730;46.248;6.930;2022-12-29T17:32:53;8.50;99.90
13322;DHT22;6730;46.248;6.930;2022-12-29T17:35:21;8.40;99.90
13322;DHT22;6730;46.248;6.930;2022-12-29T17:37:48;8.40;99.90
13322;DHT22;6730;46.248;6.930;2022-12-29T17:40:19;8.50;99.90
13322;DHT22;6730;46.248;6.930;2022-12-29T17:42:48;8.60;99.90
13322;DHT22;6730;46.248;6.930;2022-12-29T17:45:16;8.80;99.90
13322;DHT22;6730;46.248;6.930;2022-12-29T17:47:42;8.80;99.90
13322;DHT22;6730;46.248;6.930;2022-12-29T17:50:16;9.00;99.90
13322;DHT22;6730;46.248;6.930;2022-12-29T17:53:04;8.80;99.90
13322;DHT22;6730;46.248;6.930;2022-12-29T17:55:29;8.80;99.90
13322;DHT22;6730;46.248;6.930;2022-12-29T17:57:55;8.80;99.90
13322;DHT22;6730;46.248;6.930;2022-12-29T18:00:24;8.70;99.90
13322;DHT22;6730;46.248;6.930;2022-12-29T18:02:53;8.60;99.90
13322;DHT22;6730;46.248;6.930;2022-12-29T18:05:22;8.60;99.90
13322;DHT22;6730;46.248;6.930;2022-12-29T18:07:52;8.80;99.90
13322;DHT22;6730;46.248;6.930;2022-12-29T18:10:19;8.80;99.90
13322;DHT22;6730;46.248;6.930;2022-12-29T18:12:47;8.80;99.90
13322;DHT22;6730;46.248;6.930;2022-12-29T18:15:25;8.60;99.90
13322;DHT22;6730;46.248;6.930;2022-12-29T18:18:15;8.70;99.90
13322;DHT22;6730;46.248;6.930;2022-12-29T18:20:43;8.90;99.90
13322;DHT22;6730;46.248;6.930;2022-12-29T18:26:03;8.60;99.90
13322;DHT22;6730;46.248;6.930;2022-12-29T18:28:29;8.60;99.90
13322;DHT22;6730;46.248;6.930;2022-12-29T18:30:56;8.70;99.90
13322;DHT22;6730;46.248;6.930;2022-12-29T18:33:22;8.20;99.90
13322;DHT22;6730;46.248;6.930;2022-12-29T18:38:18;7.70;99.90
13322;DHT22;6730;46.248;6.930;2022-12-29T18:40:43;7.90;99.90
13322;DHT22;6730;46.248;6.930;2022-12-29T18:43:12;7.90;99.90
13322;DHT22;6730;46.248;6.930;2022-12-29T18:45:38;8.00;99.90
13322;DHT22;6730;46.248;6.930;2022-12-29T18:48:04;7.90;99.90
13322;DHT22;6730;46.248;6.930;2022-12-29T18:50:30;7.90;99.90
13322;DHT22;6730;46.248;6.930;2022-12-29T18:52:56;7.40;99.90
13322;DHT22;6730;46.248;6.930;2022-12-29T18:55:23;7.00;99.90
13322;DHT22;6730;46.248;6.930;2022-12-29T18:57:49;6.80;99.90
13322;DHT22;6730;46.248;6.930;2022-12-29T19:00:17;7.00;99.90
13322;DHT22;6730;46.248;6.930;2022-12-29T19:02:44;7.40;99.90
13322;DHT22;6730;46.248;6.930;2022-12-29T19:05:30;7.80;99.90
13322;DHT22;6730;46.248;6.930;2022-12-29T19:07:56;8.30;99.90
13322;DHT22;6730;46.248;6.930;2022-12-29T19:10:23;8.50;99.90
13322;DHT22;6730;46.248;6.930;2022-12-29T19:12:50;8.50;99.90
13322;DHT22;6730;46.248;6.930;2022-12-29T19:17:44;8.10;99.90